createdAt,value
2024-01-28T00:00:49.420Z,95729.19
2024-01-28T00:01:46.910Z,95661.13
2024-01-28T00:02:44.519Z,95685.28
2024-01-28T00:03:41.444Z,95714.84
2024-01-28T00:04:38.300Z,95670.22
2024-01-28T00:05:35.403Z,95680.66
2024-01-28T00:06:32.382Z,95583.66
2024-01-28T00:07:29.342Z,95707.69
2024-01-28T00:08:27.462Z,95628.41
2024-01-28T00:09:24.530Z,95716.31
2024-01-28T00:10:21.488Z,95724.03
2024-01-28T00:11:18.538Z,95633.63
2024-01-28T00:12:15.615Z,95693.00
2024-01-28T00:13:12.926Z,95723.13
2024-01-28T00:14:10.267Z,95649.38
2024-01-28T00:15:08.189Z,95717.63
2024-01-28T00:16:05.474Z,95665.13
2024-01-28T00:17:02.477Z,95704.00
2024-01-28T00:17:59.505Z,95719.22
2024-01-28T00:18:59.658Z,95713.09
2024-01-28T00:19:56.736Z,95705.47
2024-01-28T00:20:53.630Z,95704.84
2024-01-28T00:21:50.501Z,95694.75
2024-01-28T00:22:47.347Z,95610.47
2024-01-28T00:23:44.266Z,95708.72
2024-01-28T00:24:41.383Z,95499.31
2024-01-28T00:25:38.327Z,95619.38
2024-01-28T00:26:39.520Z,95606.75
2024-01-28T00:27:36.668Z,95712.88
2024-01-28T00:28:33.647Z,95712.28
2024-01-28T00:29:30.574Z,95730.34
2024-01-28T00:30:33.328Z,95449.75
2024-01-28T00:31:30.310Z,95710.44
2024-01-28T00:32:27.439Z,95723.25
2024-01-28T00:33:24.433Z,95685.84
2024-01-28T00:34:21.421Z,95615.66
2024-01-28T00:35:18.961Z,95723.72
2024-01-28T00:36:17.113Z,95689.41
2024-01-28T00:37:14.672Z,95737.75
2024-01-28T00:38:11.575Z,95634.72
2024-01-28T00:39:14.736Z,95686.34
2024-01-28T00:40:12.065Z,95649.31
2024-01-28T00:41:08.862Z,95716.75
2024-01-28T00:42:06.516Z,95735.72
2024-01-28T00:43:04.571Z,95730.53
2024-01-28T00:44:02.600Z,95652.38
2024-01-28T00:44:59.653Z,95426.69
2024-01-28T00:45:57.070Z,95517.63
2024-01-28T00:46:56.619Z,95738.94
2024-01-28T00:47:53.576Z,95707.53
2024-01-28T00:48:50.997Z,95519.81
2024-01-28T00:49:48.118Z,95687.69
2024-01-28T00:50:45.040Z,95512.47
2024-01-28T00:51:41.942Z,95718.88
2024-01-28T00:52:38.807Z,95720.78
2024-01-28T00:53:36.371Z,95725.41
2024-01-28T00:54:33.410Z,95665.72
2024-01-28T00:55:30.319Z,95729.94
2024-01-28T00:56:27.161Z,95524.75
2024-01-28T00:57:24.058Z,95621.75
2024-01-28T00:58:21.092Z,95741.16
2024-01-28T00:59:17.990Z,95604.84
2024-01-28T01:00:15.341Z,95720.38
2024-01-28T01:01:13.610Z,95742.63
2024-01-28T01:02:10.718Z,95737.03
2024-01-28T01:03:07.664Z,95733.97
2024-01-28T01:04:04.833Z,95624.75
2024-01-28T01:05:01.780Z,95615.47
2024-01-28T01:06:00.017Z,95742.34
2024-01-28T01:06:57.042Z,95743.00
2024-01-28T01:07:53.980Z,95753.41
2024-01-28T01:08:51.248Z,95700.25
2024-01-28T01:09:48.158Z,95765.75
2024-01-28T01:10:45.214Z,95751.47
2024-01-28T01:11:44.555Z,95732.56
2024-01-28T01:12:41.470Z,95742.16
2024-01-28T01:13:38.362Z,95745.09
2024-01-28T01:14:36.744Z,95633.28
2024-01-28T01:15:33.766Z,95616.38
2024-01-28T01:16:30.923Z,95652.22
2024-01-28T01:17:27.788Z,95633.50
2024-01-28T01:18:25.417Z,95634.38
2024-01-28T01:19:22.444Z,95679.13
2024-01-28T01:20:19.437Z,95737.97
2024-01-28T01:21:16.436Z,95473.53
2024-01-28T01:22:13.321Z,95732.63
2024-01-28T01:23:28.827Z,95734.59
2024-01-28T01:24:25.638Z,95712.56
2024-01-28T01:25:22.505Z,95753.97
2024-01-28T01:26:19.416Z,95747.03
2024-01-28T01:27:16.406Z,95726.69
2024-01-28T01:28:13.532Z,95627.84
2024-01-28T01:29:10.442Z,95592.59
2024-01-28T01:30:08.152Z,95744.44
2024-01-28T01:31:05.264Z,95746.13
2024-01-28T01:32:02.169Z,95644.50
2024-01-28T01:32:59.233Z,95643.91
2024-01-28T01:33:56.418Z,95691.03
2024-01-28T01:34:54.170Z,95692.94
2024-01-28T01:35:51.233Z,95767.47
2024-01-28T01:36:48.145Z,95761.22
2024-01-28T01:37:45.088Z,95721.28
2024-01-28T01:38:41.903Z,95747.81
2024-01-28T01:39:38.799Z,95623.31
2024-01-28T01:40:36.505Z,95671.25
2024-01-28T01:41:33.496Z,95709.41
2024-01-28T01:42:30.432Z,95688.41
2024-01-28T01:43:27.296Z,95736.06
2024-01-28T01:44:25.190Z,95747.19
2024-01-28T01:45:22.137Z,95668.13
2024-01-28T01:46:19.203Z,95744.66
2024-01-28T01:47:16.085Z,95630.00
2024-01-28T01:48:14.219Z,95711.44
2024-01-28T01:49:13.066Z,95730.25
2024-01-28T01:50:12.572Z,95743.06
2024-01-28T01:51:11.198Z,95615.16
2024-01-28T01:52:09.169Z,95723.38
2024-01-28T01:53:07.124Z,95711.94
2024-01-28T01:54:04.542Z,95740.97
2024-01-28T01:55:02.878Z,95756.97
2024-01-28T01:56:00.231Z,95733.47
2024-01-28T01:56:57.935Z,95724.50
2024-01-28T01:57:55.794Z,95707.66
2024-01-28T01:58:54.574Z,95746.59
2024-01-28T01:59:51.521Z,95651.09
2024-01-28T02:00:48.516Z,95651.84
2024-01-28T02:01:45.473Z,95722.75
2024-01-28T02:02:46.014Z,95692.81
2024-01-28T02:03:43.927Z,95726.25
2024-01-28T02:04:40.982Z,95716.44
2024-01-28T02:05:39.611Z,95694.31
2024-01-28T02:06:36.483Z,95746.72
2024-01-28T02:07:33.363Z,95752.38
2024-01-28T02:08:30.414Z,95740.41
2024-01-28T02:09:27.600Z,95756.25
2024-01-28T02:10:26.497Z,95740.31
2024-01-28T02:11:24.283Z,95764.78
2024-01-28T02:12:21.239Z,95764.47
2024-01-28T02:13:18.185Z,95767.63
2024-01-28T02:14:25.999Z,95750.16
2024-01-28T02:15:23.239Z,95650.38
2024-01-28T02:16:20.137Z,95640.19
2024-01-28T02:17:17.098Z,95747.13
2024-01-28T02:18:14.090Z,95765.38
2024-01-28T02:19:11.173Z,95771.94
2024-01-28T02:20:08.666Z,95724.28
2024-01-28T02:21:05.946Z,95765.25
2024-01-28T02:22:02.851Z,95772.53
2024-01-28T02:22:59.805Z,95757.50
2024-01-28T02:23:56.743Z,95769.94
2024-01-28T02:24:53.670Z,95759.44
2024-01-28T02:25:50.797Z,95700.28
2024-01-28T02:26:47.668Z,95754.31
2024-01-28T02:27:47.762Z,95670.56
2024-01-28T02:28:44.842Z,95761.75
2024-01-28T02:29:41.753Z,95662.59
2024-01-28T02:30:38.613Z,95765.63
2024-01-28T02:31:35.487Z,95754.25
2024-01-28T02:32:32.470Z,95488.66
2024-01-28T02:33:29.659Z,95769.69
2024-01-28T02:34:26.814Z,95657.75
2024-01-28T02:35:23.877Z,95770.38
2024-01-28T02:36:20.939Z,95739.03
2024-01-28T02:37:17.909Z,95769.41
2024-01-28T02:38:14.799Z,95756.31
2024-01-28T02:39:11.737Z,95775.78
2024-01-28T02:40:09.978Z,95551.56
2024-01-28T02:41:06.863Z,95764.69
2024-01-28T02:42:03.931Z,95779.75
2024-01-28T02:43:01.344Z,95777.72
2024-01-28T02:43:58.214Z,95779.81
2024-01-28T02:44:55.189Z,95649.06
2024-01-28T02:45:52.811Z,95777.94
2024-01-28T02:46:49.676Z,95674.31
2024-01-28T02:47:46.919Z,95791.53
2024-01-28T02:48:43.928Z,95787.22
2024-01-28T02:49:41.331Z,95681.44
2024-01-28T02:50:38.281Z,95748.81
2024-01-28T02:51:35.156Z,95744.19
2024-01-28T02:52:32.070Z,95752.66
2024-01-28T02:53:28.958Z,95792.50
2024-01-28T02:54:25.934Z,95800.22
2024-01-28T02:55:24.289Z,95786.25
2024-01-28T02:56:21.236Z,95758.69
2024-01-28T02:57:18.105Z,95647.34
2024-01-28T02:58:14.963Z,95788.25
2024-01-28T02:59:11.896Z,95792.03
2024-01-28T03:00:09.466Z,95794.28
2024-01-28T03:01:06.406Z,95794.44
2024-01-28T03:02:04.289Z,95762.84
2024-01-28T03:03:01.181Z,95796.38
2024-01-28T03:03:58.049Z,95768.94
2024-01-28T03:04:54.946Z,95790.63
2024-01-28T03:05:51.752Z,95780.81
2024-01-28T03:06:48.750Z,95780.97
2024-01-28T03:07:45.647Z,95685.97
2024-01-28T03:08:42.463Z,95688.34
2024-01-28T03:09:39.569Z,95807.59
2024-01-28T03:10:36.542Z,95794.06
2024-01-28T03:11:33.431Z,95800.91
2024-01-28T03:12:30.330Z,95812.06
2024-01-28T03:13:27.256Z,95801.28
2024-01-28T03:14:24.152Z,95702.69
2024-01-28T03:15:21.060Z,95816.22
2024-01-28T03:16:18.624Z,95715.13
2024-01-28T03:17:15.478Z,95700.75
2024-01-28T03:18:13.498Z,95818.22
2024-01-28T03:19:10.574Z,95792.28
2024-01-28T03:20:08.086Z,95702.53
2024-01-28T03:21:05.021Z,95836.88
2024-01-28T03:22:01.834Z,95821.25
2024-01-28T03:22:58.707Z,95757.81
2024-01-28T03:23:55.657Z,95827.56
2024-01-28T03:24:53.528Z,95704.41
2024-01-28T03:25:50.416Z,95814.94
2024-01-28T03:26:47.201Z,95829.19
2024-01-28T03:27:44.311Z,95801.34
2024-01-28T03:28:42.632Z,95811.44
2024-01-28T03:29:39.658Z,95696.69
2024-01-28T03:30:36.508Z,95816.06
2024-01-28T03:31:33.404Z,95716.28
2024-01-28T03:32:30.268Z,95810.19
2024-01-28T03:33:27.228Z,95824.38
2024-01-28T03:34:24.423Z,95696.66
2024-01-28T03:35:21.502Z,95825.81
2024-01-28T03:36:18.396Z,95737.28
2024-01-28T03:37:15.330Z,95810.88
2024-01-28T03:38:12.236Z,95782.25
2024-01-28T03:39:09.139Z,95797.63
2024-01-28T03:40:06.954Z,95814.34
2024-01-28T03:41:03.993Z,95822.03
2024-01-28T03:42:00.867Z,95815.00
2024-01-28T03:42:57.651Z,95819.09
2024-01-28T03:43:54.537Z,95714.53
2024-01-28T03:44:51.433Z,95792.13
2024-01-28T03:45:48.403Z,95818.75
2024-01-28T03:46:45.247Z,95827.34
2024-01-28T03:47:44.582Z,95791.94
2024-01-28T03:48:42.821Z,95815.19
2024-01-28T03:49:39.823Z,95800.75
2024-01-28T03:50:36.822Z,95775.44
2024-01-28T03:51:33.741Z,95756.81
2024-01-28T03:52:30.666Z,95829.34
2024-01-28T03:53:27.640Z,95752.50
2024-01-28T03:54:24.578Z,95708.25
2024-01-28T03:55:22.234Z,95678.84
2024-01-28T03:56:19.165Z,95805.25
2024-01-28T03:57:16.111Z,95758.56
2024-01-28T03:58:12.977Z,95818.69
2024-01-28T03:59:10.551Z,95825.56
2024-01-28T04:00:08.643Z,95839.72
2024-01-28T04:01:05.756Z,95828.88
2024-01-28T04:02:02.771Z,95722.53
2024-01-28T04:03:02.105Z,95810.53
2024-01-28T04:03:59.245Z,95819.00
2024-01-28T04:04:56.859Z,95695.84
2024-01-28T04:05:53.772Z,95842.41
2024-01-28T04:06:50.689Z,95833.22
2024-01-28T04:07:47.658Z,95720.63
2024-01-28T04:08:44.609Z,95843.78
2024-01-28T04:09:41.571Z,95811.16
2024-01-28T04:10:39.204Z,95847.00
2024-01-28T04:11:36.179Z,95835.84
2024-01-28T04:12:33.100Z,95846.81
2024-01-28T04:13:30.349Z,95828.53
2024-01-28T04:14:27.184Z,95830.13
2024-01-28T04:15:24.146Z,95759.66
2024-01-28T04:16:22.183Z,95731.28
2024-01-28T04:17:19.091Z,95881.88
2024-01-28T04:18:16.170Z,95817.22
2024-01-28T04:19:13.165Z,95857.31
2024-01-28T04:20:10.374Z,95725.06
2024-01-28T04:21:07.250Z,95870.19
2024-01-28T04:22:04.172Z,95671.63
2024-01-28T04:23:03.256Z,95829.72
2024-01-28T04:24:02.291Z,95764.00
2024-01-28T04:24:59.209Z,95884.94
2024-01-28T04:25:56.073Z,95720.97
2024-01-28T04:26:54.820Z,95855.22
2024-01-28T04:27:51.872Z,95845.09
2024-01-28T04:28:48.821Z,95850.41
2024-01-28T04:29:45.753Z,95720.84
2024-01-28T04:30:43.441Z,95772.94
2024-01-28T04:31:46.577Z,95800.38
2024-01-28T04:32:45.355Z,95851.13
2024-01-28T04:33:43.103Z,95833.38
2024-01-28T04:34:40.360Z,95743.47
2024-01-28T04:35:38.639Z,95727.13
2024-01-28T04:36:35.526Z,95738.41
2024-01-28T04:37:32.545Z,95755.06
2024-01-28T04:38:29.599Z,95873.16
2024-01-28T04:39:26.444Z,95854.59
2024-01-28T04:40:23.367Z,95742.66
2024-01-28T04:41:20.272Z,95807.38
2024-01-28T04:42:23.256Z,95754.47
2024-01-28T04:43:20.264Z,95886.06
2024-01-28T04:44:17.213Z,95758.88
2024-01-28T04:45:14.398Z,95757.50
2024-01-28T04:46:15.577Z,95738.56
2024-01-28T04:47:12.389Z,95760.94
2024-01-28T04:48:09.497Z,95851.94
2024-01-28T04:49:06.512Z,95877.06
2024-01-28T04:50:03.851Z,95751.81
2024-01-28T04:51:00.906Z,95761.63
2024-01-28T04:51:57.875Z,95868.56
2024-01-28T04:52:54.800Z,95861.38
2024-01-28T04:53:51.637Z,95748.69
2024-01-28T04:54:48.634Z,95748.25
2024-01-28T04:55:45.841Z,95832.13
2024-01-28T04:56:42.768Z,95859.16
2024-01-28T04:57:39.703Z,95880.03
2024-01-28T04:58:36.708Z,95833.63
2024-01-28T04:59:34.160Z,95755.22
2024-01-28T05:00:31.004Z,95795.34
2024-01-28T05:01:27.970Z,95742.00
2024-01-28T05:02:24.909Z,95845.13
2024-01-28T05:03:22.680Z,95749.78
2024-01-28T05:04:19.659Z,95788.63
2024-01-28T05:05:16.715Z,95880.31
2024-01-28T05:06:13.681Z,95749.47
2024-01-28T05:07:11.023Z,95898.75
2024-01-28T05:08:08.195Z,95886.06
2024-01-28T05:09:07.651Z,95767.34
2024-01-28T05:10:05.178Z,95896.00
2024-01-28T05:11:02.653Z,95764.72
2024-01-28T05:12:00.708Z,95816.44
2024-01-28T05:12:57.610Z,95868.31
2024-01-28T05:13:54.513Z,95810.47
2024-01-28T05:14:51.439Z,95789.59
2024-01-28T05:15:49.636Z,95767.09
2024-01-28T05:16:49.224Z,95895.06
2024-01-28T05:17:46.392Z,95764.91
2024-01-28T05:18:43.407Z,95847.06
2024-01-28T05:19:40.338Z,95673.25
2024-01-28T05:20:37.270Z,95899.59
2024-01-28T05:21:34.283Z,95900.28
2024-01-28T05:22:31.207Z,95896.47
2024-01-28T05:23:28.080Z,95899.72
2024-01-28T05:24:24.988Z,95778.81
2024-01-28T05:25:21.857Z,95820.84
2024-01-28T05:26:18.806Z,95904.78
2024-01-28T05:27:15.869Z,95879.50
2024-01-28T05:28:13.222Z,95852.22
2024-01-28T05:29:10.039Z,95753.28
2024-01-28T05:30:07.725Z,95870.38
2024-01-28T05:31:04.877Z,95883.47
2024-01-28T05:32:01.714Z,95772.50
2024-01-28T05:32:58.681Z,95910.66
2024-01-28T05:33:56.210Z,95914.31
2024-01-28T05:34:53.327Z,95788.91
2024-01-28T05:35:50.357Z,95924.19
2024-01-28T05:36:50.947Z,95925.13
2024-01-28T05:37:47.930Z,95907.09
2024-01-28T05:38:45.741Z,95922.13
2024-01-28T05:39:42.729Z,95809.88
2024-01-28T05:40:39.630Z,95897.28
2024-01-28T05:41:36.505Z,95810.72
2024-01-28T05:42:33.400Z,95837.59
2024-01-28T05:43:30.286Z,95706.16
2024-01-28T05:44:27.126Z,95879.47
2024-01-28T05:45:24.055Z,95762.53
2024-01-28T05:46:20.956Z,95904.66
2024-01-28T05:47:17.856Z,95915.50
2024-01-28T05:48:15.054Z,95880.59
2024-01-28T05:49:12.873Z,95932.75
2024-01-28T05:50:10.476Z,95927.84
2024-01-28T05:51:07.420Z,95820.78
2024-01-28T05:52:04.541Z,95776.97
2024-01-28T05:53:01.545Z,95914.75
2024-01-28T05:53:58.686Z,95932.91
2024-01-28T05:54:55.683Z,95935.78
2024-01-28T05:55:55.726Z,95921.84
2024-01-28T05:56:52.615Z,95868.69
2024-01-28T05:57:49.526Z,95885.25
2024-01-28T05:58:46.403Z,95944.53
2024-01-28T05:59:43.389Z,95821.09
2024-01-28T06:00:40.303Z,95936.84
2024-01-28T06:01:37.200Z,95828.72
2024-01-28T06:02:34.143Z,95924.03
2024-01-28T06:03:32.381Z,95819.56
2024-01-28T06:04:29.410Z,95925.81
2024-01-28T06:05:26.302Z,95878.94
2024-01-28T06:06:23.198Z,95943.97
2024-01-28T06:07:20.166Z,95950.66
2024-01-28T06:08:17.920Z,95953.94
2024-01-28T06:09:14.987Z,95911.47
2024-01-28T06:10:11.973Z,95943.28
2024-01-28T06:11:08.834Z,95894.81
2024-01-28T06:12:05.948Z,95948.78
2024-01-28T06:13:03.087Z,95904.66
2024-01-28T06:13:59.965Z,95959.28
2024-01-28T06:15:03.401Z,95932.91
2024-01-28T06:16:00.773Z,95821.78
2024-01-28T06:16:57.778Z,95875.44
2024-01-28T06:17:54.859Z,95958.72
2024-01-28T06:18:51.893Z,95932.78
2024-01-28T06:19:48.980Z,95978.09
2024-01-28T06:20:46.654Z,95959.78
2024-01-28T06:21:43.566Z,95962.13
2024-01-28T06:22:40.435Z,95939.31
2024-01-28T06:23:37.945Z,95967.72
2024-01-28T06:24:36.699Z,95971.00
2024-01-28T06:25:34.021Z,95853.59
2024-01-28T06:26:32.761Z,95940.94
2024-01-28T06:27:30.894Z,95854.13
2024-01-28T06:28:27.777Z,95968.00
2024-01-28T06:29:24.802Z,95972.09
2024-01-28T06:30:21.750Z,95759.59
2024-01-28T06:31:20.114Z,95950.13
2024-01-28T06:32:17.208Z,95944.25
2024-01-28T06:33:14.534Z,95958.44
2024-01-28T06:34:11.734Z,95961.88
2024-01-28T06:35:09.207Z,95866.97
2024-01-28T06:36:06.736Z,95857.00
2024-01-28T06:37:03.879Z,95888.25
2024-01-28T06:38:00.782Z,95966.13
2024-01-28T06:38:59.027Z,95895.34
2024-01-28T06:39:56.202Z,95930.47
2024-01-28T06:40:53.102Z,95968.56
2024-01-28T06:41:51.369Z,95930.59
2024-01-28T06:42:48.306Z,95964.19
2024-01-28T06:43:45.149Z,95919.41
2024-01-28T06:44:41.940Z,95931.56
2024-01-28T06:45:38.806Z,95940.41
2024-01-28T06:46:35.683Z,95969.38
2024-01-28T06:47:32.555Z,95943.72
2024-01-28T06:48:29.540Z,95944.94
2024-01-28T06:49:27.115Z,95981.66
2024-01-28T06:50:24.117Z,95864.78
2024-01-28T06:51:21.070Z,95959.59
2024-01-28T06:52:17.980Z,95969.53
2024-01-28T06:53:14.972Z,95776.50
2024-01-28T06:54:11.933Z,95881.84
2024-01-28T06:55:09.334Z,95983.28
2024-01-28T06:56:06.698Z,95875.69
2024-01-28T06:57:03.906Z,95988.78
2024-01-28T06:58:01.588Z,95878.84
2024-01-28T06:58:58.436Z,95973.06
2024-01-28T06:59:55.406Z,95875.72
2024-01-28T07:00:52.384Z,95978.00
2024-01-28T07:01:49.370Z,95931.84
2024-01-28T07:02:47.417Z,95962.81
2024-01-28T07:03:44.464Z,95881.84
2024-01-28T07:04:41.438Z,95969.53
2024-01-28T07:05:39.652Z,95961.16
2024-01-28T07:06:36.631Z,95987.44
2024-01-28T07:07:33.577Z,95874.34
2024-01-28T07:08:30.743Z,95892.63
2024-01-28T07:09:27.645Z,95981.13
2024-01-28T07:10:27.524Z,95965.03
2024-01-28T07:11:25.901Z,95876.66
2024-01-28T07:12:22.797Z,95935.78
2024-01-28T07:13:19.680Z,95969.50
2024-01-28T07:14:18.295Z,95890.75
2024-01-28T07:15:15.314Z,95960.63
2024-01-28T07:16:13.628Z,95989.88
2024-01-28T07:17:10.684Z,95884.41
2024-01-28T07:18:08.335Z,96000.66
2024-01-28T07:19:05.384Z,95880.06
2024-01-28T07:20:02.591Z,95897.94
2024-01-28T07:20:59.544Z,96004.66
2024-01-28T07:21:56.463Z,95999.41
2024-01-28T07:22:53.328Z,95990.16
2024-01-28T07:23:50.365Z,96002.84
2024-01-28T07:24:47.280Z,95894.28
2024-01-28T07:25:44.220Z,95888.53
2024-01-28T07:26:41.404Z,96005.13
2024-01-28T07:27:38.279Z,95980.91
2024-01-28T07:28:35.378Z,95994.31
2024-01-28T07:29:32.233Z,95918.00
2024-01-28T07:30:29.190Z,96019.91
2024-01-28T07:31:26.515Z,96000.91
2024-01-28T07:32:23.320Z,96007.63
2024-01-28T07:33:20.213Z,95986.28
2024-01-28T07:34:19.592Z,95903.81
2024-01-28T07:35:17.108Z,95994.19
2024-01-28T07:36:15.886Z,95987.28
2024-01-28T07:37:12.861Z,95966.59
2024-01-28T07:38:10.444Z,95993.69
2024-01-28T07:39:08.324Z,95928.31
2024-01-28T07:40:05.965Z,95862.41
2024-01-28T07:41:03.001Z,96009.25
2024-01-28T07:41:59.938Z,96019.66
2024-01-28T07:42:57.841Z,96006.75
2024-01-28T07:43:54.837Z,95961.44
2024-01-28T07:44:51.808Z,95941.97
2024-01-28T07:45:48.639Z,95919.94
2024-01-28T07:46:45.597Z,95907.41
2024-01-28T07:47:43.500Z,95904.28
2024-01-28T07:48:41.025Z,95879.38
2024-01-28T07:49:38.149Z,96018.91
2024-01-28T07:50:35.093Z,95895.63
2024-01-28T07:51:32.011Z,95979.47
2024-01-28T07:52:28.931Z,95895.06
2024-01-28T07:53:26.583Z,96021.53
2024-01-28T07:54:23.498Z,96020.44
2024-01-28T07:55:20.507Z,96014.44
2024-01-28T07:56:17.662Z,96000.38
2024-01-28T07:57:14.545Z,95880.56
2024-01-28T07:58:11.398Z,96021.91
2024-01-28T07:59:08.381Z,95989.81
2024-01-28T08:00:11.447Z,96023.53
2024-01-28T08:01:09.169Z,96027.44
2024-01-28T08:02:06.300Z,95956.00
2024-01-28T08:03:03.259Z,95985.84
2024-01-28T08:04:00.985Z,95913.53
2024-01-28T08:04:58.244Z,95997.34
2024-01-28T08:05:55.125Z,95829.50
2024-01-28T08:06:51.989Z,95944.34
2024-01-28T08:07:48.861Z,95969.34
2024-01-28T08:08:45.713Z,95902.06
2024-01-28T08:09:43.341Z,96022.91
2024-01-28T08:10:40.432Z,96022.19
2024-01-28T08:11:37.318Z,96028.38
2024-01-28T08:12:34.457Z,96022.72
2024-01-28T08:13:31.653Z,95995.41
2024-01-28T08:14:29.000Z,95827.13
2024-01-28T08:15:26.042Z,96001.56
2024-01-28T08:16:23.197Z,96025.78
2024-01-28T08:17:20.107Z,95980.69
2024-01-28T08:18:17.200Z,96019.66
2024-01-28T08:19:14.159Z,95932.91
2024-01-28T08:20:11.587Z,96038.00
2024-01-28T08:21:08.410Z,95774.81
2024-01-28T08:23:02.793Z,95917.34
2024-01-28T08:23:59.758Z,95990.88
2024-01-28T08:24:56.727Z,95961.50
2024-01-28T08:25:55.306Z,96018.75
2024-01-28T08:26:52.371Z,96026.19
2024-01-28T08:27:49.400Z,95945.09
2024-01-28T08:28:46.289Z,96038.41
2024-01-28T08:29:43.115Z,96046.75
2024-01-28T08:30:40.032Z,96031.00
2024-01-28T08:31:36.952Z,96017.53
2024-01-28T08:32:33.986Z,95891.31
2024-01-28T08:33:31.048Z,95891.41
2024-01-28T08:34:28.192Z,96017.75
2024-01-28T08:35:25.633Z,96003.97
2024-01-28T08:36:22.611Z,96042.63
2024-01-28T08:37:22.873Z,96014.41
2024-01-28T08:38:19.835Z,95955.75
2024-01-28T08:39:16.944Z,95932.72
2024-01-28T08:40:13.996Z,95940.88
2024-01-28T08:41:10.915Z,96031.88
2024-01-28T08:42:07.874Z,96032.25
2024-01-28T08:43:06.581Z,96033.97
2024-01-28T08:44:06.460Z,95935.19
2024-01-28T08:45:03.818Z,96020.38
2024-01-28T08:46:02.744Z,95936.16
2024-01-28T08:46:59.994Z,95756.47
2024-01-28T08:47:56.858Z,96038.09
2024-01-28T08:48:54.281Z,95778.47
2024-01-28T08:49:51.894Z,96035.13
2024-01-28T08:50:50.109Z,95907.78
2024-01-28T08:51:47.076Z,96011.66
2024-01-28T08:52:44.240Z,95896.41
2024-01-28T08:53:43.560Z,96027.53
2024-01-28T08:54:40.489Z,95836.16
2024-01-28T08:55:37.435Z,96041.00
2024-01-28T08:56:34.670Z,96023.69
2024-01-28T08:57:33.464Z,95950.72
2024-01-28T08:58:32.074Z,96059.84
2024-01-28T08:59:28.958Z,95941.88
2024-01-28T09:00:25.806Z,96052.19
2024-01-28T09:01:23.159Z,96061.69
2024-01-28T09:02:20.158Z,95935.13
2024-01-28T09:03:17.164Z,96065.13
2024-01-28T09:04:14.410Z,96018.47
2024-01-28T09:05:11.839Z,96056.13
2024-01-28T09:06:09.329Z,96038.34
2024-01-28T09:07:06.443Z,96049.63
2024-01-28T09:08:04.350Z,95946.28
2024-01-28T09:09:04.732Z,96022.91
2024-01-28T09:10:01.955Z,96014.25
2024-01-28T09:11:02.867Z,96050.81
2024-01-28T09:11:59.913Z,96064.59
2024-01-28T09:12:57.098Z,96053.91
2024-01-28T09:13:53.971Z,96071.38
2024-01-28T09:14:50.850Z,95942.13
2024-01-28T09:15:47.724Z,95932.56
2024-01-28T09:16:44.742Z,96064.84
2024-01-28T09:17:45.333Z,96071.31
2024-01-28T09:18:43.938Z,96044.25
2024-01-28T09:19:41.633Z,95985.56
2024-01-28T09:20:38.558Z,96022.25
2024-01-28T09:21:36.954Z,95969.69
2024-01-28T09:22:35.415Z,96039.50
2024-01-28T09:23:32.363Z,96065.88
2024-01-28T09:24:29.327Z,95860.88
2024-01-28T09:25:29.859Z,96066.53
2024-01-28T09:26:26.957Z,96066.81
2024-01-28T09:27:24.719Z,95961.94
2024-01-28T09:28:21.684Z,96072.03
2024-01-28T09:29:18.548Z,95905.41
2024-01-28T09:30:15.790Z,96067.84
2024-01-28T09:31:14.017Z,95968.13
2024-01-28T09:32:10.871Z,96060.34
2024-01-28T09:33:07.729Z,96010.06
2024-01-28T09:34:05.537Z,96059.03
2024-01-28T09:35:02.595Z,95976.56
2024-01-28T09:35:59.898Z,96060.97
2024-01-28T09:36:57.302Z,95949.00
2024-01-28T09:37:56.253Z,96054.94
2024-01-28T09:38:53.109Z,96048.78
2024-01-28T09:39:50.945Z,96065.69
2024-01-28T09:40:49.354Z,95955.72
2024-01-28T09:41:55.593Z,95966.19
2024-01-28T09:43:17.640Z,96080.06
2024-01-28T09:44:14.562Z,96044.88
2024-01-28T09:45:12.557Z,95975.09
2024-01-28T09:46:09.905Z,96087.53
2024-01-28T09:47:07.660Z,96039.16
2024-01-28T09:48:05.852Z,95933.50
2024-01-28T09:49:04.542Z,95970.09
2024-01-28T09:50:05.401Z,96052.34
2024-01-28T09:51:02.865Z,96063.00
2024-01-28T09:51:59.781Z,96066.66
2024-01-28T09:52:56.725Z,95930.16
2024-01-28T09:53:53.888Z,96069.78
2024-01-28T09:54:51.031Z,95959.72
2024-01-28T09:55:48.427Z,96035.59
2024-01-28T09:56:46.307Z,96037.31
2024-01-28T09:57:45.208Z,96013.59
2024-01-28T09:58:43.224Z,96051.56
2024-01-28T09:59:40.182Z,96028.56
2024-01-28T10:00:38.538Z,96032.09
2024-01-28T10:01:36.556Z,96015.97
2024-01-28T10:02:33.576Z,96013.78
2024-01-28T10:03:31.708Z,95984.78
2024-01-28T10:04:29.415Z,96058.81
2024-01-28T10:05:26.465Z,96009.94
2024-01-28T10:06:23.423Z,95945.22
2024-01-28T10:07:20.566Z,96001.09
2024-01-28T10:08:17.548Z,96063.56
2024-01-28T10:09:14.400Z,96028.63
2024-01-28T10:10:14.556Z,96052.38
2024-01-28T10:11:12.531Z,95947.16
2024-01-28T10:12:11.902Z,96057.28
2024-01-28T10:13:08.852Z,95968.34
2024-01-28T10:14:06.563Z,96053.81
2024-01-28T10:15:17.854Z,96029.63
2024-01-28T10:16:14.714Z,96046.09
2024-01-28T10:17:11.668Z,96036.09
2024-01-28T10:18:09.698Z,96047.88
2024-01-28T10:19:07.291Z,95975.22
2024-01-28T10:20:08.476Z,96042.53
2024-01-28T10:21:05.864Z,96052.63
2024-01-28T10:22:02.850Z,95990.50
2024-01-28T10:23:01.660Z,95927.28
2024-01-28T10:23:59.100Z,96059.72
2024-01-28T10:24:56.013Z,95944.44
2024-01-28T10:25:53.626Z,95854.75
2024-01-28T10:26:50.533Z,96045.47
2024-01-28T10:27:49.699Z,96044.69
2024-01-28T10:28:46.728Z,95929.47
2024-01-28T10:29:45.443Z,96030.25
2024-01-28T10:30:42.352Z,95925.94
2024-01-28T10:31:39.725Z,96029.56
2024-01-28T10:32:36.746Z,96027.31
2024-01-28T10:33:34.200Z,95991.59
2024-01-28T10:34:31.291Z,96045.31
2024-01-28T10:35:29.414Z,96047.69
2024-01-28T10:36:27.191Z,96031.50
2024-01-28T10:37:28.198Z,96054.38
2024-01-28T10:38:26.218Z,95992.28
2024-01-28T10:39:23.849Z,96007.75
2024-01-28T10:40:22.133Z,96051.75
2024-01-28T10:41:20.104Z,96058.81
2024-01-28T10:42:21.723Z,95936.50
2024-01-28T10:43:27.514Z,95985.88
2024-01-28T10:44:24.933Z,96023.91
2024-01-28T10:45:25.343Z,96026.88
2024-01-28T10:46:32.853Z,95989.63
2024-01-28T10:47:35.163Z,96017.66
2024-01-28T10:48:33.713Z,95952.03
2024-01-28T10:49:33.478Z,95973.78
2024-01-28T10:50:34.124Z,96019.25
2024-01-28T10:51:34.168Z,96010.28
2024-01-28T10:52:33.717Z,95982.66
2024-01-28T10:53:32.129Z,96012.09
2024-01-28T10:54:30.118Z,96000.09
2024-01-28T10:55:29.540Z,95957.75
2024-01-28T10:56:28.234Z,95922.22
2024-01-28T10:57:27.090Z,95900.63
2024-01-28T10:58:24.013Z,95994.78
2024-01-28T10:59:20.898Z,96023.81
2024-01-28T11:00:22.132Z,95877.81
2024-01-28T11:01:20.124Z,96038.84
2024-01-28T11:02:20.033Z,95871.56
2024-01-28T11:03:17.511Z,96038.53
2024-01-28T11:04:14.878Z,96018.16
2024-01-28T11:05:13.068Z,95895.09
2024-01-28T11:06:10.187Z,96014.72
2024-01-28T11:07:07.474Z,96034.44
2024-01-28T11:08:05.553Z,95938.31
2024-01-28T11:09:02.451Z,95958.91
2024-01-28T11:10:03.145Z,95949.84
2024-01-28T11:11:00.780Z,96022.06
2024-01-28T11:11:58.124Z,95944.72
2024-01-28T11:12:56.039Z,95990.25
2024-01-28T11:13:53.034Z,95922.72
2024-01-28T11:14:52.900Z,95897.88
2024-01-28T11:15:49.934Z,95945.41
2024-01-28T11:16:50.102Z,96017.69
2024-01-28T11:17:48.282Z,96028.78